Time;durP1;ratioP1;P1;durP2;ratioP2;P2;SDS_P1;SDS_P2;PMS_P1;PMS_P2;Temp;Humidity;BMP_temperature;BMP_pressure;BME280_temperature;BME280_humidity;BME280_pressure;Samples;Min_cycle;Max_cycle;Signal;HPM_P1;HPM_P2
2021/07/31 00:01:33;;;;;;;5.75;3.33;;;21.30;64.60;;;;;;5050726;28;20193;-89
2021/07/31 00:04:00;;;;;;;5.50;3.70;;;21.30;65.10;;;;;;5055022;28;20187;-90
2021/07/31 00:06:26;;;;;;;5.47;3.60;;;21.40;64.70;;;;;;5063407;28;20196;-90
2021/07/31 00:08:52;;;;;;;3.40;3.20;;;21.50;64.70;;;;;;5053264;28;20231;-90
2021/07/31 00:11:18;;;;;;;5.85;3.20;;;21.50;65.00;;;;;;5035142;28;20278;-90
2021/07/31 00:13:44;;;;;;;3.90;3.47;;;21.40;65.10;;;;;;5054594;28;20202;-90
2021/07/31 00:16:10;;;;;;;5.90;3.72;;;21.40;65.20;;;;;;5060393;28;20196;-90
2021/07/31 00:18:36;;;;;;;4.15;3.38;;;21.50;64.80;;;;;;5052092;28;20788;-90
2021/07/31 00:21:02;;;;;;;3.90;3.42;;;21.50;64.90;;;;;;5055261;28;20808;-91
2021/07/31 00:23:27;;;;;;;3.70;3.40;;;21.50;65.20;;;;;;5044808;28;20228;-90
2021/07/31 00:25:54;;;;;;;4.47;3.42;;;21.30;65.40;;;;;;5062779;28;20199;-90
2021/07/31 00:28:20;;;;;;;3.67;3.20;;;21.40;65.20;;;;;;5059580;28;20229;-90
2021/07/31 00:30:46;;;;;;;4.68;3.53;;;21.40;63.90;;;;;;5064435;28;20264;-90
2021/07/31 00:33:12;;;;;;;3.22;2.95;;;21.50;63.70;;;;;;5063466;28;20199;-90
2021/07/31 00:35:38;;;;;;;3.35;3.05;;;21.30;63.30;;;;;;5062561;28;20266;-90
2021/07/31 00:38:04;;;;;;;3.85;3.05;;;21.30;63.10;;;;;;5063315;28;20208;-88
2021/07/31 00:40:30;;;;;;;4.93;2.92;;;21.20;62.70;;;;;;5062847;28;20186;-88
2021/07/31 00:42:56;;;;;;;3.85;3.38;;;21.20;62.60;;;;;;5062447;28;20210;-90
2021/07/31 00:45:22;;;;;;;6.28;3.30;;;21.00;62.00;;;;;;5060962;28;20232;-90
2021/07/31 00:47:48;;;;;;;3.65;3.35;;;20.90;63.10;;;;;;5063696;28;20214;-90
2021/07/31 00:50:14;;;;;;;3.40;3.10;;;21.00;62.00;;;;;;5062961;28;20216;-90
2021/07/31 00:52:41;;;;;;;8.07;3.10;;;21.00;62.10;;;;;;5062324;28;20213;-90
2021/07/31 00:55:10;;;;;;;4.00;3.08;;;21.00;62.40;;;;;;5064750;28;20198;-91
2021/07/31 00:57:38;;;;;;;4.15;2.95;;;21.00;62.30;;;;;;5060688;28;20189;-91
2021/07/31 01:00:05;;;;;;;4.18;3.03;;;21.10;61.90;;;;;;5067940;28;20290;-90
2021/07/31 01:02:31;;;;;;;3.20;2.88;;;20.90;62.50;;;;;;5062143;28;20189;-89
2021/07/31 01:04:56;;;;;;;5.68;3.20;;;20.80;62.40;;;;;;5056806;28;20195;-89
2021/07/31 01:07:22;;;;;;;4.72;3.28;;;20.70;62.00;;;;;;5044014;28;20231;-89
2021/07/31 01:09:48;;;;;;;5.22;3.00;;;20.60;62.00;;;;;;5042332;28;20197;-89
2021/07/31 01:12:14;;;;;;;2.88;2.67;;;20.50;61.30;;;;;;5053667;28;20215;-89
2021/07/31 01:14:41;;;;;;;6.85;3.00;;;20.30;61.30;;;;;;5062410;28;20203;-90
2021/07/31 01:17:11;;;;;;;7.20;3.40;;;20.30;60.90;;;;;;5060909;28;20202;-89
2021/07/31 01:19:37;;;;;;;5.05;2.90;;;20.20;60.50;;;;;;5052419;28;20215;-89
2021/07/31 01:22:03;;;;;;;4.18;2.83;;;20.30;60.40;;;;;;5059883;28;20203;-89
2021/07/31 01:24:29;;;;;;;4.47;2.85;;;20.30;60.00;;;;;;5044039;28;20204;-89
2021/07/31 01:26:55;;;;;;;5.43;3.00;;;20.20;60.20;;;;;;5051519;28;20204;-89
2021/07/31 01:29:20;;;;;;;3.22;2.42;;;20.30;59.80;;;;;;5049512;28;20211;-90
2021/07/31 01:31:46;;;;;;;3.92;2.80;;;20.30;60.40;;;;;;5059424;28;20229;-89
2021/07/31 01:34:12;;;;;;;5.30;2.97;;;20.40;59.60;;;;;;5049868;28;20284;-90
2021/07/31 01:36:38;;;;;;;3.25;2.88;;;20.30;60.20;;;;;;5049427;28;20189;-89
2021/07/31 01:39:04;;;;;;;7.25;3.20;;;20.30;59.80;;;;;;5044023;28;20235;-89
2021/07/31 01:41:30;;;;;;;3.03;2.72;;;20.30;60.60;;;;;;5045592;28;20186;-89
2021/07/31 01:43:56;;;;;;;3.88;2.83;;;20.20;60.30;;;;;;5054255;28;20208;-88
2021/07/31 01:46:22;;;;;;;6.07;3.05;;;20.30;60.60;;;;;;5060564;28;20247;-90
2021/07/31 01:48:49;;;;;;;5.28;2.70;;;20.30;60.80;;;;;;5058518;28;20254;-88
2021/07/31 01:51:15;;;;;;;3.80;3.08;;;20.20;61.00;;;;;;5058342;28;20219;-90
2021/07/31 01:53:41;;;;;;;3.40;2.97;;;20.10;61.30;;;;;;5042474;28;20209;-91
2021/07/31 01:56:07;;;;;;;4.28;2.88;;;20.10;61.90;;;;;;5029133;28;20185;-90
2021/07/31 01:58:33;;;;;;;5.97;3.30;;;20.10;61.40;;;;;;5058798;28;20207;-91
2021/07/31 02:00:59;;;;;;;7.93;3.00;;;20.00;62.00;;;;;;5053652;28;20192;-91
2021/07/31 02:03:26;;;;;;;2.90;2.67;;;20.00;61.90;;;;;;5042228;28;20188;-91
2021/07/31 02:05:52;;;;;;;3.72;2.83;;;20.00;62.60;;;;;;5050111;28;20196;-91
2021/07/31 02:08:18;;;;;;;5.65;3.22;;;20.10;62.30;;;;;;5046688;28;20303;-88
2021/07/31 02:10:45;;;;;;;8.15;3.25;;;20.00;61.70;;;;;;5045049;28;20296;-90
2021/07/31 02:13:11;;;;;;;4.03;2.80;;;20.00;62.50;;;;;;5060667;28;20247;-91
2021/07/31 02:15:41;;;;;;;4.60;2.83;;;19.90;62.70;;;;;;5038013;28;20270;-91
2021/07/31 02:18:07;;;;;;;6.22;3.00;;;19.90;62.30;;;;;;5059627;28;20208;-90
2021/07/31 02:20:33;;;;;;;4.38;2.80;;;19.90;61.30;;;;;;5066395;28;20933;-91
2021/07/31 02:22:58;;;;;;;4.97;2.80;;;19.80;62.60;;;;;;5047348;28;20196;-91
2021/07/31 02:25:24;;;;;;;3.80;2.85;;;19.80;61.60;;;;;;5061088;28;20418;-90
2021/07/31 02:27:50;;;;;;;3.75;2.80;;;19.80;61.70;;;;;;5049892;28;20295;-91
2021/07/31 02:30:17;;;;;;;6.00;2.70;;;19.70;62.00;;;;;;5066580;28;20203;-88
2021/07/31 02:32:43;;;;;;;4.18;2.67;;;19.70;62.70;;;;;;5056390;28;20193;-91
2021/07/31 02:35:10;;;;;;;4.03;2.97;;;19.70;62.60;;;;;;5051994;28;20189;-91
2021/07/31 02:37:36;;;;;;;4.93;2.83;;;19.60;62.60;;;;;;5048110;28;20188;-91
2021/07/31 02:40:03;;;;;;;6.35;2.75;;;19.50;62.90;;;;;;5061585;28;20245;-91
2021/07/31 02:42:28;;;;;;;5.20;2.83;;;19.50;62.80;;;;;;5065940;28;20794;-91
2021/07/31 02:44:54;;;;;;;6.03;2.95;;;19.40;62.60;;;;;;5066780;28;20199;-91
2021/07/31 02:47:20;;;;;;;3.85;2.72;;;19.30;62.30;;;;;;5066680;28;20211;-90
2021/07/31 02:49:45;;;;;;;3.92;2.40;;;19.30;61.30;;;;;;5056299;28;20223;-88
2021/07/31 02:52:11;;;;;;;5.38;2.28;;;19.30;61.10;;;;;;5053707;28;20912;-88
2021/07/31 02:54:37;;;;;;;5.38;2.72;;;19.40;60.50;;;;;;5067920;28;20199;-89
2021/07/31 02:57:03;;;;;;;5.10;2.80;;;19.30;61.10;;;;;;5066663;28;20203;-89
2021/07/31 02:59:29;;;;;;;5.80;2.75;;;19.30;61.50;;;;;;5048417;28;20214;-89
2021/07/31 03:01:55;;;;;;;4.68;2.65;;;19.30;61.30;;;;;;5065813;28;20220;-88
2021/07/31 03:04:20;;;;;;;4.53;2.65;;;19.30;61.40;;;;;;5070850;28;20254;-88
2021/07/31 03:06:47;;;;;;;6.53;2.45;;;19.20;61.90;;;;;;5072337;28;20206;-88
2021/07/31 03:09:13;;;;;;;4.32;2.58;;;19.20;61.40;;;;;;5062305;28;20223;-88
2021/07/31 03:11:38;;;;;;;5.43;2.60;;;19.10;61.80;;;;;;5070436;28;20221;-89
2021/07/31 03:14:04;;;;;;;6.75;2.53;;;19.10;61.80;;;;;;5064784;28;20208;-88
2021/07/31 03:16:30;;;;;;;2.70;2.50;;;19.20;61.90;;;;;;5064979;28;20599;-88
2021/07/31 03:18:56;;;;;;;4.43;2.70;;;19.00;61.70;;;;;;5066449;28;20549;-88
2021/07/31 03:21:21;;;;;;;7.07;2.40;;;19.10;61.90;;;;;;5065888;28;20298;-89
2021/07/31 03:23:47;;;;;;;3.85;2.67;;;19.10;61.80;;;;;;5064267;28;20195;-89
2021/07/31 03:26:13;;;;;;;6.05;3.25;;;19.20;61.70;;;;;;5066302;28;20195;-88
2021/07/31 03:28:39;;;;;;;4.90;2.67;;;19.00;62.00;;;;;;5047329;28;20210;-88
2021/07/31 03:31:04;;;;;;;6.75;2.80;;;19.00;61.90;;;;;;5057305;28;20215;-88
2021/07/31 03:33:30;;;;;;;9.48;2.75;;;18.90;62.40;;;;;;5047335;28;20191;-89
2021/07/31 03:35:56;;;;;;;4.15;2.50;;;19.00;62.40;;;;;;5049859;28;20195;-88
2021/07/31 03:38:22;;;;;;;6.03;2.70;;;19.00;62.30;;;;;;5059400;28;20234;-89
2021/07/31 03:40:48;;;;;;;6.50;3.10;;;19.00;62.50;;;;;;5062440;28;20291;-88
2021/07/31 03:43:14;;;;;;;4.65;2.67;;;18.90;62.80;;;;;;5045263;28;20191;-88
2021/07/31 03:45:40;;;;;;;4.20;2.28;;;18.90;62.60;;;;;;5061225;28;20217;-89
2021/07/31 03:48:06;;;;;;;4.65;2.40;;;18.90;63.20;;;;;;5059858;28;20239;-89
2021/07/31 03:50:32;;;;;;;6.78;2.50;;;19.00;62.50;;;;;;5062127;28;20226;-89
2021/07/31 03:52:58;;;;;;;5.80;2.78;;;19.00;62.30;;;;;;5047213;28;20192;-89
2021/07/31 03:55:23;;;;;;;5.43;2.80;;;18.90;63.20;;;;;;5038826;28;20200;-88
2021/07/31 03:57:50;;;;;;;4.57;2.95;;;19.00;62.80;;;;;;5051488;28;20227;-89
2021/07/31 04:00:16;;;;;;;4.93;3.03;;;19.10;61.90;;;;;;5062917;28;20179;-89
2021/07/31 04:02:42;;;;;;;6.22;2.25;;;19.00;62.20;;;;;;5047092;28;20192;-89
2021/07/31 04:05:08;;;;;;;3.97;2.63;;;19.10;62.50;;;;;;5056393;28;20225;-88
2021/07/31 04:07:35;;;;;;;5.78;2.78;;;19.10;62.70;;;;;;5051393;28;20207;-89
2021/07/31 04:10:01;;;;;;;9.30;2.50;;;19.20;63.00;;;;;;5062442;28;20207;-89
2021/07/31 04:12:26;;;;;;;3.63;2.85;;;19.10;63.10;;;;;;5062072;28;20540;-88
2021/07/31 04:14:52;;;;;;;5.88;2.35;;;19.10;62.70;;;;;;5039965;28;20256;-89
2021/07/31 04:17:18;;;;;;;6.35;2.80;;;19.00;62.30;;;;;;5045366;28;20514;-89
2021/07/31 04:19:44;;;;;;;4.68;2.85;;;18.80;63.40;;;;;;5042954;28;20240;-88
2021/07/31 04:22:09;;;;;;;4.32;2.70;;;18.80;63.40;;;;;;5041784;28;20191;-88
2021/07/31 04:24:36;;;;;;;4.75;2.40;;;18.80;64.30;;;;;;5060993;28;20247;-89
2021/07/31 04:27:04;;;;;;;3.88;2.90;;;18.80;63.90;;;;;;5044631;28;20203;-89
2021/07/31 04:29:30;;;;;;;2.38;2.17;;;18.80;63.70;;;;;;5056545;28;20200;-89
2021/07/31 04:31:56;;;;;;;6.13;2.38;;;18.60;64.00;;;;;;5048868;28;20218;-89
2021/07/31 04:34:22;;;;;;;6.63;2.90;;;18.60;64.60;;;;;;5061535;28;20177;-88
2021/07/31 04:36:48;;;;;;;4.80;3.20;;;18.60;64.70;;;;;;5060068;28;20189;-89
2021/07/31 04:39:14;;;;;;;3.97;2.40;;;18.60;64.80;;;;;;5042991;28;20215;-88
2021/07/31 04:41:40;;;;;;;3.70;2.60;;;18.50;65.40;;;;;;5059050;28;20531;-89
2021/07/31 04:44:06;;;;;;;6.00;2.70;;;18.50;65.60;;;;;;5062938;28;20214;-88
2021/07/31 04:46:32;;;;;;;6.55;2.75;;;18.50;65.00;;;;;;5052517;28;20225;-89
2021/07/31 04:48:58;;;;;;;4.95;2.45;;;18.50;65.10;;;;;;5048857;28;20227;-89
2021/07/31 04:51:23;;;;;;;6.82;2.85;;;18.50;65.30;;;;;;5062345;28;20211;-89
2021/07/31 04:53:49;;;;;;;6.47;2.83;;;18.40;65.90;;;;;;5043466;28;20604;-88
2021/07/31 04:56:15;;;;;;;8.80;2.60;;;18.40;66.00;;;;;;5060998;28;20251;-88
2021/07/31 04:58:41;;;;;;;6.22;2.55;;;18.40;66.20;;;;;;5049200;28;20652;-89
2021/07/31 05:01:06;;;;;;;3.10;2.80;;;18.40;66.40;;;;;;5043092;28;20196;-88
2021/07/31 05:03:32;;;;;;;7.07;2.83;;;18.30;66.90;;;;;;5044264;28;20680;-89
2021/07/31 05:05:58;;;;;;;4.87;2.93;;;18.20;67.10;;;;;;5056732;28;20202;-88
2021/07/31 05:08:24;;;;;;;4.53;2.30;;;18.30;67.60;;;;;;5044749;28;20275;-88
2021/07/31 05:10:51;;;;;;;4.50;2.60;;;18.40;67.10;;;;;;5066930;28;20214;-88
2021/07/31 05:13:18;;;;;;;5.17;2.73;;;18.40;67.20;;;;;;5075568;28;20242;-88
2021/07/31 05:15:46;;;;;;;5.53;2.83;;;18.50;67.30;;;;;;5075205;28;20195;-89
2021/07/31 05:18:12;;;;;;;4.55;2.78;;;18.50;66.80;;;;;;5062747;28;20214;-88
2021/07/31 05:20:45;;;;;;;8.93;2.80;;;18.40;67.50;;;;;;5052344;28;20192;-88
2021/07/31 05:23:15;;;;;;;6.20;2.83;;;18.40;67.50;;;;;;5061816;28;20220;-89
2021/07/31 05:25:44;;;;;;;3.15;2.50;;;18.40;68.20;;;;;;5061004;28;20214;-88
2021/07/31 05:28:13;;;;;;;5.67;2.37;;;18.40;68.70;;;;;;5050699;28;20807;-88
2021/07/31 05:30:40;;;;;;;4.03;2.97;;;18.40;67.80;;;;;;5050822;28;20223;-88
2021/07/31 05:33:06;;;;;;;4.53;2.57;;;18.30;69.00;;;;;;5061733;28;20547;-88
2021/07/31 05:35:33;;;;;;;4.03;2.70;;;18.30;68.90;;;;;;5043677;28;20276;-88
2021/07/31 05:37:58;;;;;;;3.72;2.47;;;18.30;68.70;;;;;;5062037;28;20226;-88
2021/07/31 05:40:24;;;;;;;6.07;2.80;;;18.40;68.40;;;;;;5067330;28;20199;-89
2021/07/31 05:42:50;;;;;;;6.10;2.70;;;18.40;68.90;;;;;;5065147;28;20597;-89
2021/07/31 05:45:16;;;;;;;4.13;2.67;;;18.50;68.40;;;;;;5037285;28;20258;-88
2021/07/31 05:47:42;;;;;;;6.35;3.17;;;18.70;67.00;;;;;;5055907;28;20258;-89
2021/07/31 05:50:08;;;;;;;4.13;2.50;;;18.80;67.50;;;;;;5047849;28;20217;-88
2021/07/31 05:52:38;;;;;;;4.63;2.50;;;18.70;67.00;;;;;;5060518;28;20321;-87
2021/07/31 05:55:06;;;;;;;4.10;2.35;;;18.90;67.10;;;;;;5059083;28;20295;-87
2021/07/31 05:57:32;;;;;;;4.00;2.55;;;19.00;66.10;;;;;;5060289;28;20175;-88
2021/07/31 05:59:58;;;;;;;2.85;2.40;;;19.20;65.20;;;;;;5061926;28;20180;-89
2021/07/31 06:02:24;;;;;;;3.67;2.83;;;19.20;64.70;;;;;;5058885;28;20261;-89
2021/07/31 06:04:50;;;;;;;6.15;2.58;;;19.20;65.20;;;;;;5052370;28;20183;-89
2021/07/31 06:07:16;;;;;;;6.28;2.65;;;19.20;64.70;;;;;;5029927;28;20226;-89
2021/07/31 06:09:44;;;;;;;4.65;2.78;;;19.20;63.80;;;;;;5061245;28;20215;-89
2021/07/31 06:12:10;;;;;;;2.78;2.33;;;19.30;63.50;;;;;;5059690;28;20215;-89
2021/07/31 06:14:40;;;;;;;4.38;2.47;;;19.20;64.50;;;;;;5057420;28;20191;-89
2021/07/31 06:17:07;;;;;;;3.70;2.40;;;19.20;65.60;;;;;;5059182;28;20205;-87
2021/07/31 06:19:33;;;;;;;11.10;2.80;;;19.40;62.50;;;;;;5054270;28;20212;-89
2021/07/31 06:22:01;;;;;;;4.70;2.88;;;19.50;64.40;;;;;;5055487;28;20198;-88
2021/07/31 06:24:27;;;;;;;2.65;2.33;;;19.60;61.70;;;;;;5058471;28;20217;-88
2021/07/31 06:26:54;;;;;;;3.80;2.30;;;19.60;61.90;;;;;;5053730;28;20203;-88
2021/07/31 06:29:20;;;;;;;4.97;2.60;;;19.70;63.20;;;;;;5037461;28;20212;-90
2021/07/31 06:31:46;;;;;;;5.55;2.60;;;19.80;62.70;;;;;;5056133;28;20223;-90
2021/07/31 06:34:12;;;;;;;6.10;2.80;;;19.70;61.80;;;;;;5061254;28;20196;-89
2021/07/31 06:36:42;;;;;;;3.65;2.53;;;19.70;60.90;;;;;;5055323;28;20181;-90
2021/07/31 06:39:09;;;;;;;3.90;2.75;;;19.90;61.00;;;;;;5035009;28;20203;-88
2021/07/31 06:41:35;;;;;;;3.83;2.75;;;20.00;58.80;;;;;;5036886;28;20283;-91
2021/07/31 06:44:00;;;;;;;4.35;2.70;;;20.10;60.30;;;;;;5052640;28;20266;-88
2021/07/31 06:46:29;;;;;;;5.13;2.67;;;20.10;60.10;;;;;;5051439;28;20189;-88
2021/07/31 06:48:56;;;;;;;6.18;2.58;;;20.10;58.30;;;;;;5051729;28;20275;-91
2021/07/31 06:51:23;;;;;;;4.28;3.00;;;20.10;58.90;;;;;;5048018;28;20255;-91
2021/07/31 06:53:50;;;;;;;3.80;2.53;;;20.20;58.60;;;;;;5033532;28;20200;-91
2021/07/31 06:56:17;;;;;;;6.38;3.15;;;20.30;59.20;;;;;;5056720;28;20211;-90
2021/07/31 06:58:43;;;;;;;4.45;2.45;;;20.40;57.80;;;;;;5054909;28;20223;-90
2021/07/31 07:01:13;;;;;;;3.75;2.63;;;20.40;58.90;;;;;;5047626;28;20274;-90
2021/07/31 07:03:39;;;;;;;2.67;2.47;;;20.30;56.40;;;;;;5032178;28;20193;-91
2021/07/31 07:06:07;;;;;;;5.45;2.70;;;20.40;58.20;;;;;;5030672;28;21049;-92
2021/07/31 07:08:33;;;;;;;3.28;2.60;;;20.40;58.20;;;;;;5054537;28;20231;-92
2021/07/31 07:10:59;;;;;;;5.22;2.70;;;20.40;58.40;;;;;;5064195;28;20216;-91
2021/07/31 07:13:26;;;;;;;3.92;2.70;;;20.40;59.30;;;;;;5051625;28;20227;-92
2021/07/31 07:15:52;;;;;;;5.25;2.78;;;20.50;58.90;;;;;;5046626;28;20215;-93
2021/07/31 07:18:18;;;;;;;3.95;2.78;;;20.60;59.00;;;;;;5042560;28;20207;-90
2021/07/31 07:20:44;;;;;;;6.43;2.92;;;20.70;58.70;;;;;;5038230;28;20518;-91
2021/07/31 07:23:09;;;;;;;3.35;2.70;;;20.70;59.60;;;;;;5060436;28;20192;-90
2021/07/31 07:25:36;;;;;;;3.20;2.60;;;20.70;59.70;;;;;;5061959;28;20218;-92
2021/07/31 07:28:03;;;;;;;4.47;2.78;;;20.80;57.30;;;;;;5045387;28;20300;-91
2021/07/31 07:30:29;;;;;;;4.18;3.10;;;20.90;57.80;;;;;;5063233;28;20211;-91
2021/07/31 07:32:54;;;;;;;5.15;2.63;;;20.90;58.00;;;;;;5055030;28;20197;-90
2021/07/31 07:35:21;;;;;;;4.38;2.83;;;21.00;57.20;;;;;;5060019;28;20192;-90
2021/07/31 07:37:47;;;;;;;7.82;2.88;;;20.80;57.40;;;;;;5060755;28;20206;-90
2021/07/31 07:40:13;;;;;;;4.20;2.67;;;21.00;57.50;;;;;;5056893;28;20219;-89
2021/07/31 07:42:42;;;;;;;6.32;2.95;;;20.70;58.60;;;;;;5057253;28;20338;-89
2021/07/31 07:45:08;;;;;;;9.32;2.92;;;20.80;58.80;;;;;;5062939;28;20191;-91
2021/07/31 07:47:35;;;;;;;5.65;3.15;;;21.00;58.60;;;;;;5039306;28;20181;-91
2021/07/31 07:50:02;;;;;;;4.43;2.70;;;21.10;58.20;;;;;;5033742;28;20192;-91
2021/07/31 07:52:28;;;;;;;5.65;2.80;;;21.10;56.90;;;;;;5057988;28;20175;-92
2021/07/31 07:54:54;;;;;;;6.32;2.80;;;21.10;56.80;;;;;;5043012;28;20642;-91
2021/07/31 07:57:19;;;;;;;4.40;3.05;;;21.10;56.80;;;;;;5056922;28;20203;-91
2021/07/31 07:59:45;;;;;;;5.55;2.92;;;21.20;56.70;;;;;;5059583;28;20223;-91
2021/07/31 08:02:11;;;;;;;5.93;2.88;;;21.30;57.30;;;;;;5051965;28;20214;-91
2021/07/31 08:04:37;;;;;;;5.88;3.00;;;21.60;56.70;;;;;;5056964;28;20196;-91
2021/07/31 08:07:03;;;;;;;2.97;2.60;;;21.70;58.00;;;;;;5042403;28;20247;-91
2021/07/31 08:09:29;;;;;;;4.50;3.00;;;21.70;57.10;;;;;;5043318;28;20256;-91
2021/07/31 08:11:55;;;;;;;4.38;3.03;;;21.80;57.70;;;;;;5049736;28;20221;-91
2021/07/31 08:14:20;;;;;;;5.68;2.92;;;21.70;56.60;;;;;;5047043;28;20197;-91
2021/07/31 08:16:46;;;;;;;6.95;3.35;;;21.70;57.20;;;;;;5027139;28;20190;-90
2021/07/31 08:19:12;;;;;;;4.68;2.85;;;21.70;56.50;;;;;;5047846;28;20240;-91
2021/07/31 08:21:38;;;;;;;3.05;2.70;;;21.60;55.30;;;;;;5052392;28;20652;-91
2021/07/31 08:24:06;;;;;;;4.00;2.65;;;21.70;54.70;;;;;;5060950;28;20676;-91
2021/07/31 08:26:32;;;;;;;4.97;2.67;;;21.90;55.50;;;;;;5060036;28;20225;-90
2021/07/31 08:28:57;;;;;;;3.35;2.78;;;22.00;55.50;;;;;;5060556;28;20705;-89
2021/07/31 08:31:23;;;;;;;5.45;2.78;;;22.20;52.10;;;;;;5043205;28;20220;-89
2021/07/31 08:33:49;;;;;;;7.43;2.88;;;22.20;52.50;;;;;;5060323;28;20518;-89
2021/07/31 08:36:15;;;;;;;4.70;2.47;;;22.10;53.40;;;;;;5052160;28;20193;-90
2021/07/31 08:38:42;;;;;;;4.45;3.13;;;22.10;52.60;;;;;;5047404;28;20235;-91
2021/07/31 08:41:08;;;;;;;5.50;3.42;;;22.20;54.10;;;;;;5059185;28;20197;-90
2021/07/31 08:43:34;;;;;;;7.80;3.28;;;22.20;52.40;;;;;;5032536;28;20200;-90
2021/07/31 08:46:05;;;;;;;4.95;2.92;;;22.30;53.60;;;;;;5033263;28;20197;-89
2021/07/31 08:48:32;;;;;;;4.68;3.10;;;22.50;53.60;;;;;;5044176;28;20209;-89
2021/07/31 08:51:00;;;;;;;4.50;2.83;;;22.50;52.20;;;;;;5047764;28;20224;-89
2021/07/31 08:53:28;;;;;;;6.70;3.10;;;22.30;51.90;;;;;;5054473;28;20660;-91
2021/07/31 08:55:55;;;;;;;7.05;3.20;;;22.20;53.60;;;;;;5057499;28;20218;-89
2021/07/31 08:58:23;;;;;;;5.60;2.90;;;22.40;53.10;;;;;;5044065;28;20232;-89
2021/07/31 09:00:53;;;;;;;6.97;2.70;;;22.60;52.70;;;;;;5061277;28;20190;-90
2021/07/31 09:03:20;;;;;;;4.07;2.78;;;22.60;53.20;;;;;;5044888;28;20192;-90
2021/07/31 09:05:46;;;;;;;3.78;2.83;;;22.50;52.40;;;;;;5048657;28;20193;-90
2021/07/31 09:08:12;;;;;;;7.47;3.00;;;22.40;52.70;;;;;;5058749;28;20215;-89
2021/07/31 09:10:43;;;;;;;5.45;2.88;;;22.50;52.60;;;;;;5051584;28;20219;-88
2021/07/31 09:13:12;;;;;;;9.38;3.00;;;22.80;52.20;;;;;;5048635;28;20663;-90
2021/07/31 09:15:54;;;;;;;4.88;3.05;;;23.00;50.90;;;;;;5060967;28;20188;-90
2021/07/31 09:18:43;;;;;;;7.85;2.97;;;22.80;51.20;;;;;;5057629;28;20268;-90
2021/07/31 09:21:16;;;;;;;7.05;3.33;;;22.90;51.30;;;;;;5046490;28;20223;-90
2021/07/31 09:23:52;;;;;;;6.28;3.00;;;23.20;51.30;;;;;;5042928;28;20199;-90
2021/07/31 09:26:38;;;;;;;2.95;2.63;;;23.30;51.80;;;;;;5044519;28;20278;-89
2021/07/31 09:29:12;;;;;;;5.78;2.67;;;23.10;51.10;;;;;;5057160;28;20269;-91
2021/07/31 09:31:49;;;;;;;5.57;3.17;;;22.80;52.50;;;;;;5056172;28;20223;-89
2021/07/31 09:34:26;;;;;;;4.78;3.30;;;23.10;50.40;;;;;;5058021;28;20266;-91
2021/07/31 09:37:06;;;;;;;5.25;2.97;;;23.10;49.40;;;;;;5046091;28;20198;-90
2021/07/31 09:39:55;;;;;;;5.47;3.13;;;23.10;49.50;;;;;;5057198;28;20185;-89
2021/07/31 09:42:32;;;;;;;5.07;3.15;;;23.00;50.80;;;;;;5051893;28;20173;-90
2021/07/31 09:45:00;;;;;;;7.40;3.20;;;23.00;49.70;;;;;;5052652;28;20192;-90
2021/07/31 09:47:26;;;;;;;4.72;2.80;;;23.00;50.40;;;;;;5044015;28;20191;-89
2021/07/31 09:49:53;;;;;;;6.93;3.58;;;23.00;50.60;;;;;;5057637;28;20556;-90
2021/07/31 09:52:21;;;;;;;5.22;4.03;;;23.20;50.20;;;;;;5056058;28;20211;-90
2021/07/31 09:54:47;;;;;;;6.15;3.45;;;23.10;51.10;;;;;;5055324;28;20222;-89
2021/07/31 09:57:14;;;;;;;4.32;3.00;;;23.10;51.20;;;;;;5047223;28;20187;-90
2021/07/31 09:59:47;;;;;;;6.75;2.88;;;23.30;49.90;;;;;;5040830;28;20301;-90
2021/07/31 10:02:20;;;;;;;4.45;3.13;;;23.40;50.00;;;;;;5050460;28;20280;-90
2021/07/31 10:04:48;;;;;;;7.45;3.33;;;23.40;50.80;;;;;;5056100;28;20198;-89
2021/07/31 10:07:15;;;;;;;4.72;3.25;;;23.60;49.70;;;;;;5041889;28;20208;-90
2021/07/31 10:09:45;;;;;;;7.13;2.75;;;23.80;49.60;;;;;;5051397;28;20224;-90
2021/07/31 10:12:14;;;;;;;5.07;3.10;;;23.90;47.70;;;;;;5050683;28;20204;-89
2021/07/31 10:14:41;;;;;;;5.28;2.78;;;23.90;48.00;;;;;;5059600;28;20196;-91
2021/07/31 10:17:07;;;;;;;4.38;2.97;;;24.00;47.30;;;;;;5050410;28;20290;-90
2021/07/31 10:19:46;;;;;;;6.82;3.20;;;23.70;47.10;;;;;;5034590;28;20299;-88
2021/07/31 10:22:14;;;;;;;4.63;2.90;;;23.90;48.10;;;;;;5061601;28;20279;-91
2021/07/31 10:24:59;;;;;;;4.30;2.72;;;23.70;47.40;;;;;;5062206;28;20595;-89
2021/07/31 10:27:25;;;;;;;3.55;2.67;;;23.70;48.60;;;;;;5048762;28;20192;-90
2021/07/31 10:29:53;;;;;;;6.20;3.40;;;24.00;48.50;;;;;;5051637;28;20211;-90
2021/07/31 10:32:22;;;;;;;7.15;3.45;;;24.50;46.10;;;;;;5045142;28;20205;-90
2021/07/31 10:34:53;;;;;;;4.82;3.13;;;24.80;45.00;;;;;;5045884;28;20216;-90
2021/07/31 10:37:28;;;;;;;5.47;3.22;;;24.60;44.80;;;;;;5050436;28;20192;-89
2021/07/31 10:40:04;;;;;;;4.72;3.20;;;24.30;45.70;;;;;;5054713;28;20180;-90
2021/07/31 10:42:52;;;;;;;6.07;3.13;;;24.00;47.30;;;;;;5048055;28;20321;-90
2021/07/31 10:45:23;;;;;;;10.32;3.45;;;23.90;47.70;;;;;;5058362;28;20211;-90
2021/07/31 10:47:51;;;;;;;4.97;3.00;;;24.10;48.10;;;;;;5064992;28;20234;-90
2021/07/31 10:50:25;;;;;;;5.85;3.00;;;24.50;47.50;;;;;;5045137;28;20228;-90
2021/07/31 10:53:10;;;;;;;3.50;2.67;;;24.90;47.40;;;;;;5065932;28;20249;-90
2021/07/31 10:55:36;;;;;;;9.70;3.17;;;25.20;43.80;;;;;;5063691;28;20568;-90
2021/07/31 10:58:01;;;;;;;4.13;3.25;;;24.80;44.40;;;;;;5046147;28;20227;-89
2021/07/31 11:00:39;;;;;;;4.40;2.92;;;24.40;45.50;;;;;;5063596;28;20188;-89
2021/07/31 11:03:31;;;;;;;4.65;2.80;;;24.30;47.30;;;;;;5035665;28;20180;-90
2021/07/31 11:06:00;;;;;;;5.72;3.00;;;24.60;45.60;;;;;;5053755;28;20209;-89
2021/07/31 11:08:30;;;;;;;6.40;3.05;;;24.80;45.00;;;;;;5066385;28;20242;-91
2021/07/31 11:11:00;;;;;;;5.47;3.03;;;24.80;46.40;;;;;;5064219;28;20215;-90
2021/07/31 11:13:26;;;;;;;4.57;3.30;;;24.70;45.30;;;;;;5047626;28;20195;-90
2021/07/31 11:16:04;;;;;;;3.97;3.10;;;24.50;46.60;;;;;;5065657;28;20184;-90
2021/07/31 11:18:39;;;;;;;6.03;3.30;;;24.60;46.50;;;;;;5061804;28;20286;-91
2021/07/31 11:21:09;;;;;;;4.80;3.03;;;25.10;46.60;;;;;;5060606;28;20192;-90
2021/07/31 11:23:49;;;;;;;5.93;3.17;;;25.40;46.60;;;;;;5066030;28;20180;-89
2021/07/31 11:26:39;;;;;;;5.45;3.30;;;25.20;43.80;;;;;;5060638;28;20239;-90
2021/07/31 11:29:10;;;;;;;5.55;3.08;;;24.60;46.30;;;;;;5017443;28;20224;-90
2021/07/31 11:31:38;;;;;;;4.55;3.45;;;24.60;46.70;;;;;;5048966;28;20215;-90
2021/07/31 11:34:08;;;;;;;5.20;2.65;;;25.00;46.80;;;;;;5064215;28;20187;-90
2021/07/31 11:36:36;;;;;;;4.22;3.25;;;25.30;43.90;;;;;;5043726;28;20263;-90
2021/07/31 11:39:04;;;;;;;5.05;3.13;;;25.60;45.90;;;;;;5061165;28;20189;-89
2021/07/31 11:41:36;;;;;;;7.82;3.35;;;25.90;45.10;;;;;;5044938;28;20212;-90
2021/07/31 11:44:02;;;;;;;6.93;2.90;;;25.90;43.70;;;;;;5061539;28;20623;-89
2021/07/31 11:46:47;;;;;;;4.47;3.10;;;25.70;42.00;;;;;;5059766;28;20188;-90
2021/07/31 11:49:36;;;;;;;4.72;3.08;;;25.90;42.10;;;;;;5057521;28;20203;-90
2021/07/31 11:52:04;;;;;;;4.22;2.83;;;26.30;44.40;;;;;;5058396;28;20243;-90
2021/07/31 11:54:32;;;;;;;3.65;2.90;;;26.40;41.40;;;;;;5045749;28;20216;-90
2021/07/31 11:56:58;;;;;;;3.78;2.88;;;26.20;41.00;;;;;;5053705;28;20192;-88
2021/07/31 11:59:31;;;;;;;4.18;3.15;;;26.40;41.30;;;;;;5056258;28;20210;-91
2021/07/31 12:01:57;;;;;;;7.60;3.00;;;26.90;39.70;;;;;;5056119;28;20294;-92
2021/07/31 12:04:43;;;;;;;3.65;2.90;;;26.70;39.90;;;;;;5056315;28;20195;-90
2021/07/31 12:07:17;;;;;;;6.75;3.55;;;26.60;40.70;;;;;;5057064;28;20203;-92
2021/07/31 12:10:06;;;;;;;3.78;2.60;;;26.60;39.10;;;;;;5058242;28;20231;-91
2021/07/31 12:12:36;;;;;;;4.95;2.85;;;26.60;38.20;;;;;;5033066;28;20684;-90
2021/07/31 12:15:15;;;;;;;4.05;2.75;;;26.60;37.80;;;;;;5046084;28;20242;-89
2021/07/31 12:18:01;;;;;;;4.85;3.08;;;26.90;39.80;;;;;;5042969;28;20196;-89
2021/07/31 12:20:38;;;;;;;4.55;3.33;;;27.10;37.60;;;;;;5053903;28;20192;-89
2021/07/31 12:23:11;;;;;;;6.05;3.05;;;27.10;37.90;;;;;;5048195;28;20192;-88
2021/07/31 12:25:57;;;;;;;5.63;2.83;;;26.70;38.70;;;;;;5046831;28;20713;-88
2021/07/31 12:28:39;;;;;;;4.47;3.05;;;26.40;39.10;;;;;;5043539;28;20226;-89
2021/07/31 12:31:26;;;;;;;3.78;2.83;;;26.50;40.20;;;;;;5045672;28;20216;-90
2021/07/31 12:33:52;;;;;;;4.57;3.30;;;26.90;41.20;;;;;;5046917;28;20188;-89
2021/07/31 12:36:18;;;;;;;4.10;2.90;;;26.80;41.10;;;;;;5050599;28;20195;-90
2021/07/31 12:38:44;;;;;;;7.50;3.10;;;26.70;41.90;;;;;;5040457;28;20216;-89
2021/07/31 12:41:10;;;;;;;4.18;3.25;;;27.50;39.60;;;;;;5046154;28;20189;-90
2021/07/31 12:43:36;;;;;;;6.15;3.25;;;27.80;38.50;;;;;;5054496;28;20185;-91
2021/07/31 12:46:04;;;;;;;6.00;2.80;;;27.80;38.60;;;;;;5048036;28;20596;-89
2021/07/31 12:48:31;;;;;;;5.60;3.58;;;27.60;39.00;;;;;;5044524;28;20239;-89
2021/07/31 12:50:58;;;;;;;5.95;3.00;;;27.40;39.70;;;;;;5048346;28;20209;-89